createdAt,value
2022-08-18T00:01:05.457Z,65.71
2022-08-18T00:03:55.753Z,66.44
2022-08-18T00:06:19.938Z,64.77
2022-08-18T00:08:47.028Z,65.40
2022-08-18T00:11:13.697Z,66.26
2022-08-18T00:13:40.272Z,65.60
2022-08-18T00:16:07.106Z,65.69
2022-08-18T00:18:33.660Z,64.87
2022-08-18T00:21:02.240Z,63.69
2022-08-18T00:23:32.474Z,64.72
2022-08-18T00:26:00.229Z,65.93
2022-08-18T00:28:26.819Z,67.24
2022-08-18T00:30:53.926Z,68.50
2022-08-18T00:33:21.055Z,67.58
2022-08-18T00:35:47.632Z,68.45
2022-08-18T00:38:23.361Z,66.80
2022-08-18T00:40:53.276Z,65.51
2022-08-18T00:43:27.546Z,64.91
2022-08-18T00:45:54.366Z,64.74
2022-08-18T00:48:24.083Z,64.15
2022-08-18T00:51:02.935Z,64.39
2022-08-18T00:53:35.681Z,65.14
2022-08-18T00:56:11.507Z,64.71
2022-08-18T00:58:44.507Z,64.90
2022-08-18T01:01:16.075Z,65.35
2022-08-18T01:03:47.238Z,65.80
2022-08-18T01:06:27.192Z,66.73
2022-08-18T01:08:54.521Z,66.95
2022-08-18T01:11:21.044Z,67.31
2022-08-18T01:13:47.795Z,67.51
2022-08-18T01:16:33.097Z,67.82
2022-08-18T01:19:17.952Z,67.51
2022-08-18T01:21:51.046Z,67.29
2022-08-18T01:24:50.375Z,67.40
2022-08-18T01:27:18.535Z,67.88
2022-08-18T01:29:50.577Z,68.28
2022-08-18T01:32:22.256Z,67.89
2022-08-18T01:34:51.861Z,68.39
2022-08-18T01:37:21.997Z,68.80
2022-08-18T01:41:22.005Z,69.57
2022-08-18T01:42:37.056Z,70.08
2022-08-18T01:45:10.567Z,70.02
2022-08-18T01:47:47.981Z,70.40
2022-08-18T01:50:15.846Z,71.64
2022-08-18T01:52:42.422Z,71.32
2022-08-18T01:55:09.899Z,72.41
2022-08-18T01:57:42.935Z,73.03
2022-08-18T02:00:12.441Z,72.86
2022-08-18T02:02:40.114Z,73.65
2022-08-18T02:05:17.264Z,74.46
2022-08-18T02:07:44.540Z,75.38
2022-08-18T02:10:12.540Z,75.76
2022-08-18T02:12:43.154Z,74.98
2022-08-18T02:15:11.363Z,76.24
2022-08-18T02:17:41.512Z,77.35
2022-08-18T02:20:10.691Z,76.89
2022-08-18T02:22:37.794Z,77.17
2022-08-18T02:25:06.795Z,76.99
2022-08-18T02:27:34.259Z,78.83
2022-08-18T02:30:02.640Z,80.06
2022-08-18T02:32:29.485Z,78.70
2022-08-18T02:34:59.273Z,79.70
2022-08-18T02:37:25.967Z,79.57
2022-08-18T02:39:52.588Z,79.15
2022-08-18T02:42:19.194Z,79.99
2022-08-18T02:44:45.737Z,80.02
2022-08-18T02:47:12.332Z,81.20
2022-08-18T02:49:38.983Z,80.75
2022-08-18T02:52:06.126Z,79.83
2022-08-18T02:54:33.018Z,80.24
2022-08-18T02:56:59.541Z,80.40
2022-08-18T02:59:27.891Z,80.91
2022-08-18T03:01:58.398Z,80.33
2022-08-18T03:04:29.511Z,79.78
2022-08-18T03:07:01.786Z,79.44
2022-08-18T03:09:29.712Z,78.64
2022-08-18T03:11:57.559Z,78.52
2022-08-18T03:14:27.481Z,79.20
2022-08-18T03:16:55.360Z,78.89
2022-08-18T03:19:30.299Z,78.99
2022-08-18T03:22:02.895Z,79.32
2022-08-18T03:24:32.255Z,79.79
2022-08-18T03:27:00.571Z,79.82
2022-08-18T03:29:31.934Z,80.43
2022-08-18T03:32:03.642Z,80.89
2022-08-18T03:34:30.494Z,80.62
2022-08-18T03:36:57.121Z,80.73
2022-08-18T03:39:23.878Z,81.21
2022-08-18T03:41:59.722Z,81.33
2022-08-18T03:44:34.098Z,81.63
2022-08-18T03:47:04.390Z,81.39
2022-08-18T03:49:33.641Z,81.93
2022-08-18T03:52:01.356Z,82.35
2022-08-18T03:54:29.892Z,83.03
2022-08-18T03:56:56.559Z,83.99
2022-08-18T03:59:27.245Z,83.62
2022-08-18T04:01:58.042Z,83.36
2022-08-18T04:04:27.978Z,83.41
2022-08-18T04:06:58.704Z,83.20
2022-08-18T04:09:27.938Z,83.66
2022-08-18T04:11:55.584Z,83.67
2022-08-18T04:14:24.947Z,83.20
2022-08-18T04:16:52.339Z,82.96
2022-08-18T04:19:26.903Z,83.61
2022-08-18T04:21:56.132Z,84.13
2022-08-18T04:24:22.964Z,84.65
2022-08-18T04:26:50.250Z,85.10
2022-08-18T04:29:20.403Z,85.49
2022-08-18T04:31:53.684Z,84.46
2022-08-18T04:34:24.366Z,84.72
2022-08-18T04:36:54.374Z,85.05
2022-08-18T04:39:22.483Z,85.62
2022-08-18T04:41:50.097Z,85.63
2022-08-18T04:44:18.096Z,86.15
2022-08-18T04:46:51.999Z,86.44
2022-08-18T04:49:21.507Z,85.92
2022-08-18T04:52:22.632Z,85.98
2022-08-18T04:54:55.415Z,85.78
2022-08-18T04:57:23.106Z,85.50
2022-08-18T04:59:54.011Z,85.30
2022-08-18T05:02:25.017Z,85.20
2022-08-18T05:04:51.603Z,85.51
2022-08-18T05:07:22.777Z,85.66
2022-08-18T05:09:49.890Z,85.65
2022-08-18T05:12:22.715Z,86.33
2022-08-18T05:14:53.812Z,86.18
2022-08-18T05:17:20.361Z,86.31
2022-08-18T05:19:49.845Z,86.57
2022-08-18T05:22:19.584Z,86.34
2022-08-18T05:24:54.441Z,86.40
2022-08-18T05:27:21.341Z,86.77
2022-08-18T05:29:51.560Z,86.30
2022-08-18T05:32:38.334Z,86.34
2022-08-18T05:35:10.515Z,86.12
2022-08-18T05:38:06.343Z,85.37
2022-08-18T05:40:34.841Z,85.20
2022-08-18T05:43:03.681Z,85.76
2022-08-18T05:45:30.349Z,86.46
2022-08-18T05:48:03.389Z,86.24
2022-08-18T05:50:34.564Z,86.06
2022-08-18T05:53:14.094Z,85.70
2022-08-18T05:56:12.659Z,85.49
2022-08-18T05:58:44.436Z,85.64
2022-08-18T06:01:16.505Z,85.14
2022-08-18T06:03:49.332Z,85.46
2022-08-18T06:06:19.850Z,84.67
2022-08-18T06:08:58.920Z,84.72
2022-08-18T06:11:25.973Z,85.24
2022-08-18T06:13:54.246Z,85.13
2022-08-18T06:16:26.557Z,84.13
2022-08-18T06:19:28.715Z,84.58
2022-08-18T06:22:15.222Z,85.11
2022-08-18T06:24:46.751Z,85.23
2022-08-18T06:27:39.622Z,84.78
2022-08-18T06:30:26.829Z,84.82
2022-08-18T06:33:12.728Z,83.64
2022-08-18T06:35:44.751Z,83.60
2022-08-18T06:38:34.593Z,82.50
2022-08-18T06:41:40.612Z,82.73
2022-08-18T06:44:05.799Z,82.34
2022-08-18T06:46:36.888Z,82.28
2022-08-18T06:49:06.741Z,82.63
2022-08-18T06:51:36.277Z,82.22
2022-08-18T06:54:05.274Z,82.55
2022-08-18T06:56:40.755Z,82.40
2022-08-18T06:59:15.054Z,82.70
2022-08-18T07:01:42.122Z,83.15
2022-08-18T07:04:08.557Z,83.88
2022-08-18T07:06:35.028Z,83.57
2022-08-18T07:09:20.633Z,84.51
2022-08-18T07:12:16.274Z,84.33
2022-08-18T07:14:44.939Z,84.42
2022-08-18T07:17:22.080Z,83.95
2022-08-18T07:19:56.008Z,84.19
2022-08-18T07:22:22.432Z,85.81
2022-08-18T07:25:05.857Z,86.08
2022-08-18T07:27:52.844Z,86.08
2022-08-18T07:30:19.519Z,85.79
2022-08-18T07:32:52.986Z,86.15
2022-08-18T07:35:23.894Z,86.73
2022-08-18T07:37:58.583Z,86.16
2022-08-18T07:40:48.251Z,85.87
2022-08-18T07:43:17.390Z,84.78
2022-08-18T07:45:45.616Z,83.77
2022-08-18T07:51:10.209Z,83.09
2022-08-18T07:53:42.730Z,83.55
2022-08-18T07:56:39.906Z,83.35
2022-08-18T07:59:09.273Z,82.93
2022-08-18T08:01:46.614Z,83.70
2022-08-18T08:04:25.078Z,84.04
2022-08-18T08:07:23.408Z,83.78
2022-08-18T08:10:07.620Z,84.16
2022-08-18T08:12:39.098Z,83.45
2022-08-18T08:15:08.352Z,84.75
2022-08-18T08:17:42.596Z,85.13
2022-08-18T08:20:16.261Z,84.26
2022-08-18T08:22:50.454Z,83.24
2022-08-18T08:25:45.240Z,82.95
2022-08-18T08:28:39.413Z,81.19
2022-08-18T08:31:32.985Z,80.33
2022-08-18T08:34:06.246Z,80.25
2022-08-18T08:36:35.869Z,81.40
2022-08-18T08:39:07.201Z,80.88
2022-08-18T08:41:51.189Z,79.98
2022-08-18T08:44:23.514Z,79.95
2022-08-18T08:46:56.148Z,79.74
2022-08-18T08:49:27.621Z,80.00
2022-08-18T08:52:01.287Z,79.17
2022-08-18T08:54:39.919Z,78.71
2022-08-18T08:57:07.010Z,76.57
2022-08-18T08:59:40.974Z,76.16
2022-08-18T09:02:27.034Z,76.74
2022-08-18T09:05:14.728Z,76.25
2022-08-18T09:07:47.334Z,76.70
2022-08-18T09:10:13.728Z,77.25
2022-08-18T09:12:40.086Z,78.12
2022-08-18T09:15:06.715Z,78.51
2022-08-18T09:17:45.658Z,78.80
2022-08-18T09:20:24.263Z,78.81
2022-08-18T09:22:53.072Z,77.50
2022-08-18T09:25:31.580Z,77.56
2022-08-18T09:28:29.724Z,76.89
2022-08-18T09:31:02.469Z,76.83
2022-08-18T09:33:42.001Z,76.65
2022-08-18T09:36:33.936Z,75.97
2022-08-18T09:39:24.741Z,76.38
2022-08-18T09:41:51.215Z,75.47
2022-08-18T09:44:37.057Z,75.25
2022-08-18T09:47:10.195Z,73.44
2022-08-18T09:49:42.091Z,73.05
2022-08-18T09:55:16.514Z,74.91
2022-08-18T09:57:44.726Z,76.03
2022-08-18T10:00:12.925Z,76.82
2022-08-18T10:02:40.402Z,77.42
2022-08-18T10:05:15.959Z,76.32
2022-08-18T10:08:03.479Z,75.45
2022-08-18T10:11:00.923Z,75.27
2022-08-18T10:13:49.392Z,76.45
2022-08-18T10:16:23.444Z,76.25
2022-08-18T10:18:59.025Z,75.49
2022-08-18T10:21:31.351Z,75.93
2022-08-18T10:24:29.892Z,77.07
2022-08-18T10:29:50.388Z,74.76
2022-08-18T10:32:18.276Z,75.05
2022-08-18T10:34:51.506Z,74.72
2022-08-18T10:37:37.530Z,75.91
2022-08-18T10:40:04.016Z,78.17
2022-08-18T10:42:39.411Z,76.43
2022-08-18T10:45:22.020Z,76.00
2022-08-18T10:48:11.782Z,75.81
2022-08-18T10:50:44.442Z,75.23
2022-08-18T10:53:39.195Z,75.00
2022-08-18T10:56:05.203Z,74.70
2022-08-18T10:58:56.533Z,74.25
2022-08-18T11:01:33.017Z,74.70
2022-08-18T11:04:33.526Z,74.58
2022-08-18T11:07:07.756Z,74.10
2022-08-18T11:09:35.158Z,71.12
2022-08-18T11:12:08.075Z,71.90
2022-08-18T11:14:38.157Z,72.81
2022-08-18T11:17:07.050Z,72.47
2022-08-18T11:19:42.001Z,72.05
2022-08-18T11:25:28.994Z,71.65
2022-08-18T11:27:56.469Z,71.42
2022-08-18T11:30:30.848Z,72.43
2022-08-18T11:32:59.469Z,70.22
2022-08-18T11:35:34.298Z,69.92
2022-08-18T11:38:12.491Z,69.64
2022-08-18T11:43:30.003Z,71.20
2022-08-18T11:46:27.750Z,71.71
2022-08-18T11:48:56.399Z,72.20
2022-08-18T11:51:24.730Z,72.91
2022-08-18T11:53:58.026Z,72.63
2022-08-18T11:56:30.871Z,72.85
2022-08-18T11:59:03.068Z,72.63
2022-08-18T12:01:31.030Z,72.93
2022-08-18T12:04:18.943Z,73.10
2022-08-18T12:06:45.576Z,72.41
2022-08-18T12:09:30.583Z,72.80
2022-08-18T12:12:07.690Z,72.41
2022-08-18T12:14:50.888Z,72.21
2022-08-18T12:17:18.056Z,71.89
2022-08-18T12:19:44.555Z,72.03
2022-08-18T12:22:18.517Z,72.30
2022-08-18T12:24:46.545Z,72.53
2022-08-18T12:27:21.481Z,73.66
2022-08-18T12:29:49.505Z,73.99
2022-08-18T12:32:18.305Z,75.66
2022-08-18T12:35:09.157Z,77.27
2022-08-18T12:40:24.244Z,78.81
2022-08-18T12:42:51.006Z,81.39
2022-08-18T12:45:17.665Z,82.95
2022-08-18T12:47:44.130Z,84.23
2022-08-18T12:50:11.436Z,85.12
2022-08-18T12:52:38.425Z,84.15
2022-08-18T12:55:08.618Z,85.14
2022-08-18T12:57:52.107Z,87.13
2022-08-18T13:00:21.088Z,88.60
2022-08-18T13:02:54.991Z,88.67
2022-08-18T13:05:26.641Z,89.44
2022-08-18T13:08:00.216Z,90.15
2022-08-18T13:10:45.538Z,91.50
2022-08-18T13:13:14.547Z,92.39
2022-08-18T13:15:44.396Z,92.42
2022-08-18T13:18:29.006Z,94.39
2022-08-18T13:20:57.597Z,91.85
2022-08-18T13:23:25.907Z,94.23
2022-08-18T13:25:59.289Z,94.80
2022-08-18T13:28:30.507Z,94.55
2022-08-18T13:30:57.468Z,94.50
2022-08-18T13:33:56.223Z,95.06
2022-08-18T13:36:11.672Z,95.30
2022-08-18T13:38:43.306Z,95.31
2022-08-18T13:41:15.661Z,94.92
2022-08-18T13:43:44.415Z,95.91
2022-08-18T13:46:14.120Z,96.90
2022-08-18T13:48:42.669Z,97.28
2022-08-18T13:51:14.219Z,95.37
2022-08-18T13:53:57.683Z,95.82
2022-08-18T13:56:31.650Z,96.50
2022-08-18T13:58:58.350Z,96.25
2022-08-18T14:01:44.690Z,94.09
2022-08-18T14:04:15.003Z,94.02
2022-08-18T14:06:46.797Z,94.69
2022-08-18T14:09:36.639Z,95.81
2022-08-18T14:12:05.598Z,96.31
2022-08-18T14:14:33.261Z,95.98
2022-08-18T14:17:00.895Z,96.19
2022-08-18T14:22:36.279Z,96.66
2022-08-18T14:25:22.390Z,96.59
2022-08-18T14:27:56.246Z,98.01
2022-08-18T14:30:26.782Z,96.48
2022-08-18T14:32:53.789Z,95.78
2022-08-18T14:35:33.655Z,95.09
2022-08-18T14:38:09.136Z,95.57
2022-08-18T14:40:37.121Z,95.60
2022-08-18T14:43:09.024Z,95.22
2022-08-18T14:45:36.170Z,95.36
2022-08-18T14:48:07.435Z,95.92
2022-08-18T14:50:37.825Z,96.92
2022-08-18T14:53:06.238Z,96.94
2022-08-18T14:55:35.911Z,98.22
2022-08-18T14:58:02.950Z,97.55
2022-08-18T15:00:29.460Z,98.10
2022-08-18T15:02:59.712Z,98.55
2022-08-18T15:05:27.158Z,98.40
2022-08-18T15:07:53.736Z,97.97
2022-08-18T15:10:23.740Z,98.95
2022-08-18T15:12:54.687Z,100.00
2022-08-18T15:15:22.410Z,100.00
2022-08-18T15:17:50.485Z,100.00
2022-08-18T15:20:20.015Z,100.00
2022-08-18T15:23:08.871Z,100.00
2022-08-18T15:25:51.239Z,100.00
2022-08-18T15:28:23.715Z,99.98
2022-08-18T15:31:16.489Z,100.00
2022-08-18T15:33:38.900Z,99.75
2022-08-18T15:36:05.407Z,99.48
2022-08-18T15:38:36.497Z,99.26
2022-08-18T15:41:05.949Z,99.84
2022-08-18T15:43:39.918Z,99.95
2022-08-18T15:46:07.493Z,99.56
2022-08-18T15:48:35.092Z,100.00
2022-08-18T15:51:08.064Z,100.00
2022-08-18T15:53:44.442Z,100.00
2022-08-18T15:56:15.822Z,100.00
2022-08-18T15:58:42.643Z,99.79
2022-08-18T16:01:29.844Z,99.74
2022-08-18T16:03:57.291Z,100.00
2022-08-18T16:06:27.560Z,99.89
2022-08-18T16:08:58.685Z,100.00
2022-08-18T16:11:29.302Z,100.00
2022-08-18T16:13:58.726Z,99.86
2022-08-18T16:16:35.403Z,100.00
2022-08-18T16:19:02.530Z,100.00
2022-08-18T16:21:29.184Z,100.00
2022-08-18T16:23:56.952Z,100.00
2022-08-18T16:26:23.414Z,100.00
2022-08-18T16:28:52.344Z,100.00
2022-08-18T16:31:24.668Z,100.00
2022-08-18T16:33:52.521Z,100.00
2022-08-18T16:36:18.946Z,99.06
2022-08-18T16:38:48.749Z,100.00
2022-08-18T16:41:20.554Z,100.00
2022-08-18T16:43:47.624Z,100.00
2022-08-18T16:46:16.464Z,100.00
2022-08-18T16:48:45.758Z,100.00
2022-08-18T16:51:13.208Z,99.72
2022-08-18T16:53:40.315Z,99.91
2022-08-18T16:56:11.081Z,98.92
2022-08-18T16:58:56.115Z,99.38
2022-08-18T17:01:49.061Z,100.00
2022-08-18T17:04:20.835Z,100.00
2022-08-18T17:06:48.647Z,100.00
2022-08-18T17:09:18.863Z,100.00
2022-08-18T17:11:51.797Z,100.00
2022-08-18T17:14:19.727Z,100.00
2022-08-18T17:16:57.426Z,100.00
2022-08-18T17:19:25.083Z,99.96
2022-08-18T17:21:52.055Z,99.78
2022-08-18T17:24:31.411Z,99.57
2022-08-18T17:27:03.942Z,99.34
2022-08-18T17:29:50.227Z,99.52
2022-08-18T17:32:31.654Z,99.48
2022-08-18T17:35:04.012Z,99.40
2022-08-18T17:37:30.927Z,99.22
2022-08-18T17:40:04.091Z,99.57
2022-08-18T17:42:31.389Z,100.00
2022-08-18T17:45:00.488Z,100.00
2022-08-18T17:47:30.344Z,100.00
2022-08-18T17:50:26.969Z,99.80
2022-08-18T17:52:58.258Z,100.00
2022-08-18T17:55:29.104Z,100.00
2022-08-18T17:58:06.979Z,100.00
2022-08-18T18:00:33.408Z,99.94
2022-08-18T18:03:00.323Z,100.00
2022-08-18T18:05:31.931Z,100.00
2022-08-18T18:07:59.461Z,100.00
2022-08-18T18:10:40.202Z,100.00
2022-08-18T18:13:30.849Z,100.00
2022-08-18T18:16:02.348Z,99.81
2022-08-18T18:18:34.650Z,99.90
2022-08-18T18:21:08.547Z,99.83
2022-08-18T18:23:41.097Z,99.82
2022-08-18T18:26:33.012Z,99.92
2022-08-18T18:29:13.772Z,99.94
2022-08-18T18:31:43.954Z,99.89
2022-08-18T18:34:23.450Z,99.89
2022-08-18T18:36:55.034Z,100.00
2022-08-18T18:39:34.038Z,100.00
2022-08-18T18:42:14.922Z,100.00
2022-08-18T18:44:49.181Z,100.00
2022-08-18T18:47:24.638Z,100.00
2022-08-18T18:49:55.087Z,100.00
2022-08-18T18:52:28.491Z,100.00
2022-08-18T18:55:02.696Z,100.00
2022-08-18T18:57:32.225Z,100.00
2022-08-18T19:00:18.093Z,100.00
2022-08-18T19:03:05.886Z,100.00
2022-08-18T19:05:35.552Z,100.00
2022-08-18T19:08:20.723Z,100.00
2022-08-18T19:11:02.000Z,100.00
2022-08-18T19:13:35.020Z,100.00
2022-08-18T19:16:28.177Z,100.00
2022-08-18T19:19:38.464Z,100.00
2022-08-18T19:22:05.277Z,100.00
2022-08-18T19:24:38.539Z,100.00
2022-08-18T19:27:07.100Z,100.00
2022-08-18T19:29:37.661Z,100.00
2022-08-18T19:32:15.834Z,100.00
2022-08-18T19:34:51.319Z,100.00
2022-08-18T19:37:27.200Z,100.00
2022-08-18T19:40:03.611Z,100.00
2022-08-18T19:42:39.175Z,100.00
2022-08-18T19:45:33.410Z,100.00
2022-08-18T19:48:23.881Z,100.00
2022-08-18T19:50:56.547Z,100.00
2022-08-18T19:53:22.952Z,100.00
2022-08-18T19:56:02.646Z,100.00
2022-08-18T19:58:58.539Z,100.00
2022-08-18T20:01:47.149Z,100.00
2022-08-18T20:04:23.592Z,100.00
2022-08-18T20:07:25.600Z,100.00
2022-08-18T20:10:06.992Z,100.00
2022-08-18T20:12:37.536Z,100.00
2022-08-18T20:15:16.549Z,100.00
2022-08-18T20:17:59.893Z,100.00
2022-08-18T20:20:29.331Z,100.00
2022-08-18T20:22:57.581Z,100.00
2022-08-18T20:25:24.269Z,100.00
2022-08-18T20:27:59.796Z,100.00
2022-08-18T20:30:33.997Z,100.00
2022-08-18T20:33:04.816Z,100.00
2022-08-18T20:35:32.404Z,100.00
2022-08-18T20:38:12.680Z,100.00
2022-08-18T20:40:44.644Z,100.00
2022-08-18T20:43:28.270Z,100.00
2022-08-18T20:46:13.545Z,100.00
2022-08-18T20:48:46.147Z,100.00
2022-08-18T20:51:18.405Z,100.00
2022-08-18T20:53:58.396Z,100.00
2022-08-18T20:56:43.882Z,100.00
2022-08-18T20:59:20.368Z,100.00
2022-08-18T21:02:01.016Z,100.00
2022-08-18T21:04:35.119Z,100.00
2022-08-18T21:07:11.963Z,100.00
2022-08-18T21:09:39.659Z,100.00
2022-08-18T21:12:06.104Z,99.47
2022-08-18T21:14:32.517Z,99.99
2022-08-18T21:17:00.294Z,100.00
2022-08-18T21:19:28.317Z,100.00
2022-08-18T21:22:00.999Z,100.00
2022-08-18T21:24:33.552Z,99.82
2022-08-18T21:27:03.874Z,99.88
2022-08-18T21:29:44.284Z,99.53
2022-08-18T21:32:22.395Z,100.00
2022-08-18T21:34:49.337Z,100.00
2022-08-18T21:37:17.210Z,99.87
2022-08-18T21:39:49.860Z,99.70
2022-08-18T21:42:18.048Z,99.20
2022-08-18T21:44:45.940Z,99.68
2022-08-18T21:47:15.471Z,99.55
2022-08-18T21:49:56.282Z,99.11
2022-08-18T21:52:24.256Z,99.00
2022-08-18T21:54:50.792Z,99.73
2022-08-18T21:57:27.745Z,99.06
2022-08-18T22:00:20.236Z,99.62
2022-08-18T22:02:56.289Z,99.81
2022-08-18T22:05:28.428Z,99.87
2022-08-18T22:07:55.272Z,100.00
2022-08-18T22:10:42.199Z,100.00
2022-08-18T22:13:36.611Z,100.00
2022-08-18T22:16:20.773Z,100.00
2022-08-18T22:18:47.578Z,100.00
2022-08-18T22:21:33.211Z,100.00
2022-08-18T22:24:18.814Z,100.00
2022-08-18T22:26:47.671Z,100.00
2022-08-18T22:29:26.447Z,100.00
2022-08-18T22:31:56.227Z,100.00
2022-08-18T22:34:27.801Z,100.00
2022-08-18T22:36:55.984Z,100.00
2022-08-18T22:39:35.210Z,100.00
2022-08-18T22:42:02.141Z,100.00
2022-08-18T22:44:28.862Z,100.00
2022-08-18T22:46:55.353Z,100.00
2022-08-18T22:49:23.449Z,100.00
2022-08-18T22:51:51.409Z,100.00
2022-08-18T22:54:18.608Z,100.00
2022-08-18T22:56:56.415Z,100.00
2022-08-18T22:59:28.505Z,100.00
2022-08-18T23:01:58.523Z,100.00
2022-08-18T23:04:25.847Z,100.00
2022-08-18T23:06:55.837Z,100.00
2022-08-18T23:09:27.152Z,100.00
2022-08-18T23:11:55.140Z,100.00
2022-08-18T23:14:22.341Z,100.00
2022-08-18T23:16:52.140Z,100.00
2022-08-18T23:19:19.760Z,100.00
2022-08-18T23:21:46.362Z,100.00
2022-08-18T23:24:14.339Z,100.00
2022-08-18T23:26:40.920Z,100.00
2022-08-18T23:29:07.710Z,100.00
2022-08-18T23:31:37.496Z,100.00
2022-08-18T23:34:04.479Z,100.00
2022-08-18T23:36:31.407Z,100.00
2022-08-18T23:38:58.161Z,100.00
2022-08-18T23:41:24.717Z,100.00
2022-08-18T23:43:51.378Z,100.00
2022-08-18T23:46:28.504Z,100.00
2022-08-18T23:48:57.290Z,100.00
2022-08-18T23:51:36.986Z,100.00
2022-08-18T23:54:05.131Z,100.00
2022-08-18T23:56:31.800Z,100.00
2022-08-18T23:58:58.736Z,100.00
